Time;durP1;ratioP1;P1;durP2;ratioP2;P2;SDS_P1;SDS_P2;PMS_P1;PMS_P2;Temp;Humidity;BMP_temperature;BMP_pressure;BME280_temperature;BME280_humidity;BME280_pressure;Samples;Min_cycle;Max_cycle;Signal;HPM_P1;HPM_P2
2023/09/29 00:00:35;;;;;;;11.40;6.63;;;15.50;99.90;;;;;;4980477;28;89035;-34
2023/09/29 00:03:01;;;;;;;;;;;15.50;99.90;;;;;;4980172;28;90259;-33
2023/09/29 00:05:27;;;;;;;13.82;7.07;;;15.50;99.90;;;;;;4980086;28;89447;-37
2023/09/29 00:07:55;;;;;;;16.27;8.95;;;15.50;99.90;;;;;;4979568;28;89856;-35
2023/09/29 00:10:21;;;;;;;19.02;8.93;;;15.50;99.90;;;;;;4979162;28;89293;-35
2023/09/29 00:12:48;;;;;;;21.35;8.50;;;15.50;99.90;;;;;;4979481;28;90183;-33
2023/09/29 00:15:17;;;;;;;15.23;8.63;;;15.50;99.90;;;;;;4979344;28;89737;-34
2023/09/29 00:17:43;;;;;;;;;;;15.50;99.90;;;;;;4980081;28;89839;-33
2023/09/29 00:20:24;;;;;;;16.40;8.65;;;15.50;99.90;;;;;;4980805;28;88763;-33
2023/09/29 00:23:00;;;;;;;17.17;9.20;;;15.50;99.90;;;;;;4986468;28;90856;-33
2023/09/29 00:25:26;;;;;;;13.10;7.53;;;15.50;99.90;;;;;;4985649;28;89531;-32
2023/09/29 00:27:53;;;;;;;16.60;9.15;;;15.40;99.90;;;;;;4985706;28;89470;-40
2023/09/29 00:30:20;;;;;;;16.60;9.07;;;15.40;99.90;;;;;;4985469;28;89706;-31
2023/09/29 00:32:47;;;;;;;20.27;8.90;;;15.50;99.90;;;;;;4985942;28;90046;-37
2023/09/29 00:37:49;;;;;;;19.85;9.10;;;15.50;99.90;;;;;;4984752;28;89633;-36
2023/09/29 00:40:15;;;;;;;13.05;8.02;;;15.50;99.90;;;;;;4986339;28;87987;-34
2023/09/29 00:42:46;;;;;;;13.40;8.82;;;15.50;99.90;;;;;;4985481;28;89789;-36
2023/09/29 00:45:12;;;;;;;19.60;8.90;;;15.50;99.90;;;;;;4985538;28;88790;-38
2023/09/29 00:47:38;;;;;;;13.35;8.85;;;15.50;99.90;;;;;;4985644;28;90042;-34
2023/09/29 00:50:07;;;;;;;19.13;9.15;;;15.50;99.90;;;;;;4986197;28;87695;-38
2023/09/29 00:52:34;;;;;;;19.63;9.70;;;15.60;99.90;;;;;;4986461;28;89507;-32
2023/09/29 00:55:00;;;;;;;14.85;8.55;;;15.60;99.90;;;;;;4984806;28;90323;-35
2023/09/29 00:57:27;;;;;;;20.30;8.93;;;15.60;99.90;;;;;;4985624;28;91127;-36
2023/09/29 00:59:53;;;;;;;22.35;9.55;;;15.70;99.90;;;;;;4985815;28;88022;-34
2023/09/29 01:02:20;;;;;;;15.82;8.38;;;15.70;99.90;;;;;;4985384;28;90219;-33
2023/09/29 01:04:46;;;;;;;16.87;8.03;;;15.70;99.90;;;;;;4985580;28;89128;-33
2023/09/29 01:07:12;;;;;;;12.88;7.40;;;15.70;99.90;;;;;;4984812;28;90158;-38
2023/09/29 01:09:38;;;;;;;18.20;8.90;;;15.80;99.90;;;;;;4986023;28;88680;-33
2023/09/29 01:12:04;;;;;;;16.02;8.75;;;15.80;99.90;;;;;;4985480;28;90390;-40
2023/09/29 01:14:30;;;;;;;18.38;7.80;;;15.80;99.90;;;;;;4985235;28;89700;-34
2023/09/29 01:16:56;;;;;;;17.10;8.55;;;15.80;99.90;;;;;;4984859;28;88950;-38
2023/09/29 01:19:22;;;;;;;13.77;7.68;;;15.80;99.90;;;;;;4985171;28;89914;-34
2023/09/29 01:21:47;;;;;;;17.00;8.20;;;15.80;99.90;;;;;;4985162;28;89979;-34
2023/09/29 01:24:13;;;;;;;16.45;8.95;;;15.80;99.90;;;;;;4984887;28;90986;-34
2023/09/29 01:26:44;;;;;;;11.02;7.63;;;15.90;99.90;;;;;;4985524;28;89337;-32
2023/09/29 01:29:11;;;;;;;12.57;7.63;;;15.90;99.90;;;;;;4985699;28;89494;-33
2023/09/29 01:31:37;;;;;;;10.35;7.78;;;15.90;99.90;;;;;;4984615;28;90989;-34
2023/09/29 01:34:04;;;;;;;13.00;8.05;;;15.90;99.90;;;;;;4981397;28;90139;-32
2023/09/29 01:36:30;;;;;;;16.77;9.77;;;15.90;99.90;;;;;;4982461;28;89628;-34
2023/09/29 01:38:56;;;;;;;17.77;10.20;;;15.90;99.90;;;;;;4981164;28;88268;-34
2023/09/29 01:41:21;;;;;;;15.25;8.10;;;15.90;99.90;;;;;;4980982;28;89866;-35
2023/09/29 01:43:47;;;;;;;14.77;7.50;;;15.90;99.90;;;;;;4981587;28;90735;-33
2023/09/29 01:46:15;;;;;;;16.65;8.93;;;15.90;99.90;;;;;;4981795;28;91262;-35
2023/09/29 01:48:41;;;;;;;12.40;8.13;;;15.90;99.90;;;;;;4982120;28;88479;-35
2023/09/29 01:51:07;;;;;;;18.08;8.75;;;15.90;99.90;;;;;;4981351;28;90281;-34
2023/09/29 01:53:33;;;;;;;12.25;7.60;;;16.00;99.90;;;;;;4981582;28;89471;-32
2023/09/29 01:55:59;;;;;;;15.10;8.30;;;15.90;99.90;;;;;;4981066;28;89114;-33
2023/09/29 01:58:26;;;;;;;14.25;8.50;;;16.00;99.90;;;;;;4981398;28;87676;-37
2023/09/29 02:00:52;;;;;;;15.43;6.97;;;16.00;99.90;;;;;;4980050;28;90690;-36
2023/09/29 02:03:18;;;;;;;14.63;6.70;;;16.00;99.90;;;;;;4981235;28;89933;-34
2023/09/29 02:05:44;;;;;;;19.20;9.43;;;16.00;99.90;;;;;;4981594;28;90008;-36
2023/09/29 02:08:10;;;;;;;17.00;9.05;;;16.00;99.90;;;;;;4980786;28;89002;-37
2023/09/29 02:10:36;;;;;;;18.48;7.93;;;16.00;99.90;;;;;;4981428;28;90120;-31
2023/09/29 02:13:07;;;;;;;15.18;8.80;;;16.00;99.90;;;;;;4980829;28;89493;-34
2023/09/29 02:15:34;;;;;;;17.88;9.73;;;16.00;99.90;;;;;;4981171;28;90006;-34
2023/09/29 02:18:07;;;;;;;14.30;9.10;;;16.00;99.90;;;;;;4981247;28;89572;-33
2023/09/29 02:20:34;;;;;;;10.57;7.75;;;16.00;99.90;;;;;;4981342;28;90303;-36
2023/09/29 02:23:02;;;;;;;13.73;8.27;;;16.10;99.90;;;;;;4981193;28;89814;-32
2023/09/29 02:25:29;;;;;;;12.88;8.65;;;16.10;99.90;;;;;;4981214;28;89689;-33
2023/09/29 02:27:56;;;;;;;18.98;8.77;;;16.10;99.90;;;;;;4981056;28;89653;-32
2023/09/29 02:30:22;;;;;;;17.37;9.67;;;16.10;99.90;;;;;;4980391;28;89587;-34
2023/09/29 02:32:48;;;;;;;17.13;8.48;;;16.10;99.90;;;;;;4980435;28;90723;-33
2023/09/29 02:35:14;;;;;;;15.43;8.52;;;16.10;99.90;;;;;;4980246;28;89780;-37
2023/09/29 02:37:41;;;;;;;13.75;9.00;;;16.10;99.90;;;;;;4980665;28;88685;-38
2023/09/29 02:40:10;;;;;;;16.67;9.80;;;16.20;99.90;;;;;;4980280;28;91001;-35
2023/09/29 02:42:36;;;;;;;16.80;10.30;;;16.20;99.90;;;;;;4980856;28;89681;-32
2023/09/29 02:45:02;;;;;;;18.50;9.13;;;16.10;99.90;;;;;;4978745;28;89498;-34
2023/09/29 02:47:29;;;;;;;15.65;9.27;;;16.20;99.90;;;;;;4980173;28;89017;-34
2023/09/29 02:49:57;;;;;;;11.82;8.95;;;16.20;99.90;;;;;;4981111;28;90603;-35
2023/09/29 02:52:23;;;;;;;10.15;8.85;;;16.20;99.90;;;;;;4980511;28;88235;-36
2023/09/29 02:54:49;;;;;;;17.90;9.95;;;16.10;99.90;;;;;;4980337;28;89448;-34
2023/09/29 02:57:16;;;;;;;15.18;9.02;;;16.20;99.90;;;;;;4980008;28;90337;-31
2023/09/29 02:59:42;;;;;;;11.30;9.27;;;16.20;99.90;;;;;;4980766;28;88918;-33
2023/09/29 03:02:08;;;;;;;14.10;8.45;;;16.20;99.90;;;;;;4980010;28;89045;-36
2023/09/29 03:04:33;;;;;;;17.65;9.73;;;16.20;99.90;;;;;;4979968;28;89741;-32
2023/09/29 03:06:59;;;;;;;11.13;8.82;;;16.20;99.90;;;;;;4980291;28;87627;-35
2023/09/29 03:09:25;;;;;;;18.13;11.05;;;16.20;99.90;;;;;;4981192;28;90109;-32
2023/09/29 03:11:51;;;;;;;17.90;9.63;;;16.20;99.90;;;;;;4979374;28;90881;-35
2023/09/29 03:14:17;;;;;;;11.82;8.52;;;16.20;99.90;;;;;;4980495;28;89370;-32
2023/09/29 03:16:43;;;;;;;17.23;10.18;;;16.20;99.90;;;;;;4980320;28;89241;-32
2023/09/29 03:19:09;;;;;;;16.23;10.38;;;16.20;99.90;;;;;;4979244;28;89900;-35
2023/09/29 03:21:34;;;;;;;13.32;10.18;;;16.20;99.90;;;;;;4978941;28;90752;-32
2023/09/29 03:24:02;;;;;;;23.15;10.35;;;16.20;99.90;;;;;;4977913;28;89986;-35
2023/09/29 03:26:31;;;;;;;20.50;10.03;;;16.20;99.90;;;;;;4979015;28;89323;-36
2023/09/29 03:28:57;;;;;;;19.45;10.35;;;16.30;99.90;;;;;;4979338;28;90834;-33
2023/09/29 03:31:22;;;;;;;23.65;11.15;;;16.20;99.90;;;;;;4979216;28;89929;-33
2023/09/29 03:33:49;;;;;;;12.98;10.27;;;16.20;99.90;;;;;;4979588;28;89201;-35
2023/09/29 03:36:14;;;;;;;13.10;11.07;;;16.20;99.90;;;;;;4978845;28;88989;-36
2023/09/29 03:38:41;;;;;;;17.35;10.45;;;16.30;99.90;;;;;;4979101;28;90599;-36
2023/09/29 03:41:09;;;;;;;22.33;12.55;;;16.30;99.90;;;;;;4978835;28;89668;-37
2023/09/29 03:43:34;;;;;;;22.25;11.95;;;16.30;99.90;;;;;;4979517;28;89638;-34
2023/09/29 03:46:00;;;;;;;17.60;12.32;;;16.30;99.90;;;;;;4978552;28;90142;-33
2023/09/29 03:48:26;;;;;;;13.20;10.00;;;16.30;99.90;;;;;;4978411;28;91117;-37
2023/09/29 03:50:52;;;;;;;23.70;12.15;;;16.30;99.90;;;;;;4979108;28;89800;-34
2023/09/29 03:53:18;;;;;;;17.63;12.13;;;16.30;99.90;;;;;;4977651;28;89727;-32
2023/09/29 03:55:44;;;;;;;15.20;11.25;;;16.40;99.90;;;;;;4979338;28;88962;-35
2023/09/29 03:58:10;;;;;;;16.77;10.15;;;16.40;99.90;;;;;;4977703;28;90367;-38
2023/09/29 04:00:36;;;;;;;17.25;11.38;;;16.40;99.90;;;;;;4978681;28;89367;-35
2023/09/29 04:03:02;;;;;;;15.80;10.40;;;16.40;99.90;;;;;;4971156;28;89607;-34
2023/09/29 04:05:28;;;;;;;15.27;10.60;;;16.40;99.90;;;;;;4958187;28;87651;-38
2023/09/29 04:07:53;;;;;;;24.67;11.18;;;16.40;99.90;;;;;;4958750;28;90515;-39
2023/09/29 04:10:20;;;;;;;19.35;11.07;;;16.40;99.90;;;;;;4958300;28;90621;-36
2023/09/29 04:12:47;;;;;;;13.68;10.77;;;16.50;99.90;;;;;;4958640;28;90862;-36
2023/09/29 04:15:13;;;;;;;19.75;11.30;;;16.40;99.90;;;;;;4961069;28;89982;-35
2023/09/29 04:17:40;;;;;;;18.25;11.43;;;16.40;99.90;;;;;;4978460;28;90432;-38
2023/09/29 04:20:07;;;;;;;21.13;12.00;;;16.40;99.90;;;;;;4977141;28;89692;-32
2023/09/29 04:22:33;;;;;;;18.23;11.80;;;16.50;99.90;;;;;;4976465;28;90432;-32
2023/09/29 04:24:58;;;;;;;20.02;12.20;;;16.40;99.90;;;;;;4976663;28;88215;-32
2023/09/29 04:27:24;;;;;;;19.08;11.63;;;16.50;99.90;;;;;;4976997;28;90151;-33
2023/09/29 04:29:53;;;;;;;20.30;11.93;;;16.50;99.90;;;;;;4977091;28;89752;-33
2023/09/29 04:32:19;;;;;;;21.40;12.45;;;16.50;99.90;;;;;;4977335;28;88273;-36
2023/09/29 04:34:45;;;;;;;21.70;13.13;;;16.50;99.90;;;;;;4977879;28;88557;-34
2023/09/29 04:37:10;;;;;;;18.98;12.40;;;16.50;99.90;;;;;;4978391;28;90215;-33
2023/09/29 04:39:37;;;;;;;23.75;12.30;;;16.50;99.90;;;;;;4978719;28;89782;-33
2023/09/29 04:42:03;;;;;;;17.70;12.30;;;16.60;99.90;;;;;;4977825;28;89464;-33
2023/09/29 04:44:29;;;;;;;16.20;11.32;;;16.60;99.90;;;;;;4978936;28;88888;-33
2023/09/29 04:46:55;;;;;;;17.95;11.40;;;16.60;99.90;;;;;;4978571;28;91176;-36
2023/09/29 04:49:20;;;;;;;15.68;11.10;;;16.60;99.90;;;;;;4978499;28;90814;-33
2023/09/29 04:51:46;;;;;;;15.93;10.95;;;16.60;99.90;;;;;;4978443;28;89572;-33
2023/09/29 04:54:12;;;;;;;15.23;11.48;;;16.60;99.90;;;;;;4977951;28;89491;-37
2023/09/29 04:56:38;;;;;;;16.80;11.70;;;16.60;99.90;;;;;;4978318;28;90110;-35
2023/09/29 04:59:05;;;;;;;18.05;11.43;;;16.70;99.90;;;;;;4977789;28;89660;-31
2023/09/29 05:01:31;;;;;;;14.95;12.48;;;16.60;99.90;;;;;;4977851;28;90799;-33
2023/09/29 05:03:58;;;;;;;17.80;11.20;;;16.60;99.90;;;;;;4978318;28;89923;-32
2023/09/29 05:06:24;;;;;;;15.73;10.33;;;16.70;99.90;;;;;;4978046;28;91962;-36
2023/09/29 05:08:51;;;;;;;14.50;11.48;;;16.60;99.90;;;;;;4980518;28;90286;-35
2023/09/29 05:11:21;;;;;;;16.95;11.73;;;16.70;99.90;;;;;;4981422;28;89806;-33
2023/09/29 05:13:47;;;;;;;22.02;11.75;;;16.70;99.90;;;;;;4980526;28;88644;-38
2023/09/29 05:16:13;;;;;;;12.63;10.80;;;16.70;99.90;;;;;;4975561;28;90381;-35
2023/09/29 05:18:38;;;;;;;15.18;10.82;;;16.70;99.90;;;;;;4975355;28;89741;-33
2023/09/29 05:21:04;;;;;;;12.40;10.57;;;16.80;99.90;;;;;;4979744;28;89754;-32
2023/09/29 05:23:29;;;;;;;19.73;12.82;;;16.80;99.90;;;;;;4977964;28;89801;-35
2023/09/29 05:25:55;;;;;;;14.73;10.30;;;16.80;99.90;;;;;;4979502;28;90867;-34
2023/09/29 05:28:21;;;;;;;15.07;11.57;;;16.80;99.90;;;;;;4979084;28;89123;-33
2023/09/29 05:30:54;;;;;;;13.57;10.35;;;16.80;99.90;;;;;;4979578;28;89322;-32
2023/09/29 05:33:20;;;;;;;13.82;9.65;;;16.80;99.90;;;;;;4979508;28;87897;-39
2023/09/29 05:35:46;;;;;;;16.33;10.50;;;16.80;99.90;;;;;;4979597;28;90396;-35
2023/09/29 05:38:12;;;;;;;16.40;10.63;;;16.80;99.90;;;;;;5021547;22;89782;-35
2023/09/29 05:40:38;;;;;;;14.68;10.27;;;16.80;99.90;;;;;;4959978;28;89665;-33
2023/09/29 05:43:07;;;;;;;15.18;10.38;;;16.80;99.90;;;;;;4959617;28;89394;-36
2023/09/29 05:45:32;;;;;;;13.43;10.15;;;16.80;99.90;;;;;;4958835;28;92029;-37
2023/09/29 05:47:58;;;;;;;18.63;11.02;;;16.80;99.90;;;;;;4958553;28;90122;-33
2023/09/29 05:50:23;;;;;;;10.38;9.27;;;16.80;99.90;;;;;;4959232;28;89537;-37
2023/09/29 05:52:49;;;;;;;15.02;10.30;;;16.80;99.90;;;;;;4959854;28;90179;-35
2023/09/29 05:55:15;;;;;;;17.60;10.07;;;16.80;99.90;;;;;;4958705;28;90262;-33
2023/09/29 05:57:40;;;;;;;13.43;10.90;;;16.80;99.90;;;;;;4959257;28;89611;-34
2023/09/29 06:00:07;;;;;;;16.38;9.98;;;16.90;99.90;;;;;;4957957;28;89989;-35
2023/09/29 06:02:33;;;;;;;11.45;9.40;;;16.90;99.90;;;;;;4959581;28;89002;-34
2023/09/29 06:04:59;;;;;;;15.63;10.68;;;16.90;99.90;;;;;;4959652;28;89620;-33
2023/09/29 06:07:25;;;;;;;14.00;9.80;;;16.90;99.90;;;;;;4957207;28;91195;-33
2023/09/29 06:09:50;;;;;;;12.23;9.23;;;16.90;99.90;;;;;;4959165;28;90522;-38
2023/09/29 06:12:16;;;;;;;12.10;9.45;;;16.90;99.90;;;;;;4960120;28;90045;-36
2023/09/29 06:14:41;;;;;;;11.27;9.65;;;16.90;99.90;;;;;;4959249;28;89507;-34
2023/09/29 06:17:07;;;;;;;18.90;9.75;;;16.90;99.90;;;;;;4958924;28;90794;-33
2023/09/29 06:19:33;;;;;;;10.35;8.70;;;16.90;99.90;;;;;;4959533;28;89310;-35
2023/09/29 06:21:59;;;;;;;9.85;8.82;;;16.90;99.90;;;;;;4958646;28;89154;-35
2023/09/29 06:24:24;;;;;;;10.77;8.75;;;16.90;99.90;;;;;;4959867;28;89643;-35
2023/09/29 06:26:50;;;;;;;14.50;10.15;;;16.90;99.90;;;;;;4958768;28;88568;-33
2023/09/29 06:29:16;;;;;;;14.50;9.25;;;16.90;99.90;;;;;;4957991;28;89667;-37
2023/09/29 06:31:41;;;;;;;11.88;9.52;;;16.90;99.90;;;;;;4958010;28;88167;-36
2023/09/29 06:34:07;;;;;;;12.18;9.13;;;16.90;99.90;;;;;;4959764;28;90289;-34
2023/09/29 06:36:33;;;;;;;14.13;10.27;;;17.00;99.90;;;;;;4956525;28;90690;-37
2023/09/29 06:38:58;;;;;;;14.18;10.07;;;17.00;99.90;;;;;;4957848;28;88727;-31
2023/09/29 06:41:24;;;;;;;13.68;9.75;;;17.00;99.90;;;;;;4958633;28;88479;-36
2023/09/29 06:43:50;;;;;;;10.18;9.15;;;17.00;99.90;;;;;;4958586;28;90002;-35
2023/09/29 06:46:16;;;;;;;13.00;10.45;;;17.00;99.90;;;;;;4958777;28;89248;-36
2023/09/29 06:48:43;;;;;;;12.30;9.77;;;17.00;99.90;;;;;;4957411;28;89371;-31
2023/09/29 06:51:09;;;;;;;12.43;9.15;;;17.00;99.90;;;;;;4959346;28;89038;-33
2023/09/29 06:53:34;;;;;;;12.85;9.15;;;17.00;99.90;;;;;;4959445;28;90433;-34
2023/09/29 06:56:00;;;;;;;8.77;7.53;;;17.00;99.90;;;;;;4958794;28;89334;-34
2023/09/29 06:58:26;;;;;;;11.40;9.13;;;17.00;99.90;;;;;;4958086;28;89594;-32
2023/09/29 07:00:52;;;;;;;10.15;7.63;;;17.00;99.90;;;;;;4954397;28;89612;-38
2023/09/29 07:03:18;;;;;;;10.32;8.50;;;17.00;99.90;;;;;;4945163;28;90296;-34
2023/09/29 07:05:46;;;;;;;11.52;7.85;;;17.00;99.90;;;;;;4945082;28;90443;-35
2023/09/29 07:08:12;;;;;;;8.37;7.57;;;17.10;99.90;;;;;;4944572;28;89635;-36
2023/09/29 07:10:38;;;;;;;9.45;8.45;;;17.00;99.90;;;;;;4942540;28;90130;-34
2023/09/29 07:13:04;;;;;;;14.68;8.38;;;17.10;99.90;;;;;;4945691;28;90318;-38
2023/09/29 07:15:30;;;;;;;11.80;7.63;;;17.10;99.90;;;;;;4950249;28;88957;-36
2023/09/29 07:17:55;;;;;;;16.48;8.88;;;17.10;99.90;;;;;;4951369;28;88636;-36
2023/09/29 07:20:21;;;;;;;9.65;7.97;;;17.10;99.90;;;;;;4948092;28;88374;-35
2023/09/29 07:22:47;;;;;;;8.93;7.80;;;17.10;99.90;;;;;;4948343;28;89836;-34
2023/09/29 07:25:14;;;;;;;8.65;7.70;;;17.10;99.90;;;;;;4957792;28;90575;-33
2023/09/29 07:27:39;;;;;;;9.25;8.38;;;17.20;99.90;;;;;;4958150;28;89250;-35
2023/09/29 07:30:07;;;;;;;10.73;6.85;;;17.20;99.90;;;;;;4958067;28;88815;-34
2023/09/29 07:32:33;;;;;;;12.18;7.57;;;17.20;99.90;;;;;;4958658;28;90204;-34
2023/09/29 07:34:59;;;;;;;7.03;5.95;;;17.20;99.90;;;;;;4957898;28;89773;-36
2023/09/29 07:37:24;;;;;;;6.72;6.03;;;17.30;99.90;;;;;;4958407;28;90294;-34
2023/09/29 07:39:50;;;;;;;11.85;6.93;;;17.30;99.90;;;;;;4959028;28;89278;-33
2023/09/29 07:42:17;;;;;;;16.48;6.53;;;17.30;99.90;;;;;;4958646;28;88926;-35
2023/09/29 07:44:43;;;;;;;7.57;6.13;;;17.40;99.90;;;;;;4957985;28;88890;-37
2023/09/29 07:47:08;;;;;;;10.05;6.85;;;17.40;99.90;;;;;;4957780;28;90369;-37
2023/09/29 07:49:40;;;;;;;9.20;6.10;;;17.50;99.90;;;;;;4958315;28;88972;-33
2023/09/29 07:52:06;;;;;;;9.82;6.70;;;17.60;99.90;;;;;;4957824;28;90477;-35
2023/09/29 07:54:32;;;;;;;6.57;5.82;;;17.60;99.90;;;;;;4958006;28;89362;-36
2023/09/29 07:56:57;;;;;;;5.32;4.82;;;17.70;99.90;;;;;;4957759;28;88993;-34
2023/09/29 07:59:23;;;;;;;10.15;6.38;;;17.70;99.90;;;;;;4956061;28;89694;-33
2023/09/29 08:01:49;;;;;;;6.53;5.80;;;17.70;99.90;;;;;;4958276;28;90231;-33
2023/09/29 08:04:16;;;;;;;6.15;4.90;;;17.70;99.90;;;;;;4950645;28;89629;-37
2023/09/29 08:06:42;;;;;;;6.22;5.63;;;17.80;99.90;;;;;;4945200;28;89902;-35
2023/09/29 08:09:08;;;;;;;6.85;5.32;;;17.80;99.90;;;;;;4957501;28;88728;-35
2023/09/29 08:11:34;;;;;;;8.45;5.47;;;17.90;99.90;;;;;;4947467;28;88762;-34
2023/09/29 08:14:00;;;;;;;6.47;5.45;;;18.00;99.90;;;;;;4936946;28;91376;-34
2023/09/29 08:16:25;;;;;;;6.18;5.07;;;18.10;99.90;;;;;;4938101;28;90501;-32
2023/09/29 08:18:51;;;;;;;6.68;5.82;;;18.20;99.90;;;;;;4938542;28;88977;-33
2023/09/29 08:21:16;;;;;;;5.55;5.05;;;18.30;99.90;;;;;;4937872;28;90059;-33
2023/09/29 08:23:42;;;;;;;5.22;4.80;;;18.40;99.90;;;;;;4936815;28;88770;-36
2023/09/29 08:26:08;;;;;;;6.35;5.35;;;18.40;99.90;;;;;;4938405;28;88420;-34
2023/09/29 08:28:33;;;;;;;9.73;6.00;;;18.50;99.90;;;;;;4939681;28;88658;-35
2023/09/29 08:30:59;;;;;;;7.38;4.65;;;18.60;99.90;;;;;;4936443;28;91963;-35
2023/09/29 08:33:27;;;;;;;5.38;4.88;;;18.70;99.90;;;;;;4938468;28;89640;-33
2023/09/29 08:35:55;;;;;;;;;;;18.80;99.90;;;;;;4937831;28;89460;-33
2023/09/29 08:38:22;;;;;;;;;;;18.90;99.90;;;;;;4939001;28;88431;-35
2023/09/29 08:40:54;;;;;;;7.28;5.22;;;19.10;99.90;;;;;;4939544;28;90297;-34
2023/09/29 08:43:21;;;;;;;5.20;4.63;;;19.20;99.90;;;;;;4940217;28;89547;-34
2023/09/29 08:45:48;;;;;;;6.43;4.70;;;19.20;99.90;;;;;;4941608;28;88936;-35
2023/09/29 08:48:15;;;;;;;7.85;5.28;;;19.30;99.90;;;;;;4941056;28;87990;-32
2023/09/29 08:50:41;;;;;;;6.43;5.57;;;19.40;99.90;;;;;;4940662;28;89957;-35
2023/09/29 08:53:10;;;;;;;6.88;5.30;;;19.50;99.90;;;;;;4940819;28;91203;-36
2023/09/29 08:55:38;;;;;;;6.55;4.93;;;19.60;99.90;;;;;;4939970;28;90568;-33
2023/09/29 08:58:05;;;;;;;5.65;4.65;;;19.70;99.90;;;;;;4940734;28;89918;-33
2023/09/29 09:00:32;;;;;;;8.80;5.55;;;19.80;99.90;;;;;;4941593;28;89784;-33
2023/09/29 09:03:00;;;;;;;10.00;5.57;;;19.90;99.90;;;;;;4939706;28;90450;-36
2023/09/29 09:05:26;;;;;;;8.40;5.45;;;20.00;99.90;;;;;;4948433;28;89399;-37
2023/09/29 09:07:54;;;;;;;8.20;5.65;;;20.10;99.90;;;;;;4950516;28;89750;-40
2023/09/29 09:10:32;;;;;;;5.07;4.57;;;20.20;99.90;;;;;;4940887;28;90566;-38
2023/09/29 09:12:58;;;;;;;10.48;4.78;;;20.30;99.90;;;;;;4940167;28;89226;-33
2023/09/29 09:15:24;;;;;;;7.43;5.07;;;20.30;99.90;;;;;;4940785;28;89834;-37
2023/09/29 09:17:50;;;;;;;6.40;5.53;;;20.50;99.90;;;;;;4941510;28;89519;-36
2023/09/29 09:20:18;;;;;;;6.32;4.25;;;20.50;99.90;;;;;;4939514;28;90043;-39
2023/09/29 09:22:54;;;;;;;5.75;4.07;;;20.50;99.90;;;;;;4941448;28;89903;-39
2023/09/29 09:25:35;;;;;;;6.20;4.53;;;20.50;99.90;;;;;;4940756;28;88993;-35
2023/09/29 09:28:05;;;;;;;9.35;4.55;;;20.60;99.90;;;;;;4943372;28;89313;-37
2023/09/29 09:30:35;;;;;;;10.95;4.65;;;20.60;99.90;;;;;;4938127;28;89195;-35
2023/09/29 09:33:03;;;;;;;8.38;4.63;;;20.60;99.90;;;;;;4939706;28;89558;-34
2023/09/29 09:35:29;;;;;;;6.22;4.28;;;20.60;99.90;;;;;;4946703;28;90170;-39
2023/09/29 09:37:56;;;;;;;3.92;3.58;;;20.70;99.90;;;;;;4943872;28;89182;-38
2023/09/29 09:40:26;;;;;;;5.03;4.50;;;20.70;99.90;;;;;;4948252;28;88977;-35
2023/09/29 09:42:53;;;;;;;8.07;4.70;;;20.80;99.90;;;;;;4939368;28;89689;-39
2023/09/29 09:45:24;;;;;;;4.57;4.18;;;20.80;99.90;;;;;;4940027;28;90261;-38
2023/09/29 09:47:52;;;;;;;4.85;4.20;;;20.80;99.90;;;;;;4939948;28;88370;-30
2023/09/29 09:50:19;;;;;;;5.20;4.53;;;20.80;99.90;;;;;;4938453;28;89540;-32
2023/09/29 09:52:50;;;;;;;12.10;3.57;;;20.80;99.90;;;;;;4939152;28;90628;-32
2023/09/29 09:55:17;;;;;;;5.25;4.18;;;21.00;99.90;;;;;;4939029;28;90451;-34
2023/09/29 09:57:45;;;;;;;4.90;4.40;;;21.10;99.90;;;;;;4938725;28;89124;-34
2023/09/29 10:00:12;;;;;;;8.18;4.90;;;21.20;99.90;;;;;;4938724;28;88862;-35
2023/09/29 10:02:49;;;;;;;6.17;4.43;;;21.20;99.90;;;;;;4939471;28;89875;-35
2023/09/29 10:05:22;;;;;;;7.18;4.03;;;21.20;99.90;;;;;;4938720;28;91098;-32
2023/09/29 10:07:53;;;;;;;6.97;4.95;;;21.30;99.90;;;;;;4939415;28;89199;-35
2023/09/29 10:10:33;;;;;;;6.43;4.88;;;21.20;99.90;;;;;;4939549;28;91110;-32
2023/09/29 10:13:00;;;;;;;8.07;4.10;;;21.30;99.90;;;;;;4941819;28;88385;-34
2023/09/29 10:15:30;;;;;;;5.07;4.07;;;21.30;99.90;;;;;;4943550;28;89462;-32
2023/09/29 10:18:19;;;;;;;7.80;4.95;;;21.30;99.90;;;;;;4938057;28;88782;-36
2023/09/29 10:20:50;;;;;;;4.25;3.95;;;21.20;99.90;;;;;;4939440;28;90213;-32
2023/09/29 10:23:16;;;;;;;5.65;4.43;;;21.20;99.90;;;;;;4938496;28;89988;-36
2023/09/29 10:25:55;;;;;;;4.32;3.92;;;21.20;99.90;;;;;;4937906;28;89874;-33
2023/09/29 10:28:31;;;;;;;5.97;4.90;;;21.20;99.90;;;;;;4939125;28;88868;-34
2023/09/29 10:31:09;;;;;;;5.30;4.80;;;21.30;99.90;;;;;;4939701;28;89775;-34
2023/09/29 10:33:55;;;;;;;6.05;4.15;;;21.20;99.90;;;;;;4939074;28;89613;-33
2023/09/29 10:36:23;;;;;;;6.47;4.35;;;21.20;99.90;;;;;;4938931;28;88805;-35
2023/09/29 10:38:49;;;;;;;5.13;4.00;;;21.20;99.90;;;;;;4940676;28;89184;-34
2023/09/29 10:41:15;;;;;;;5.45;4.53;;;21.20;99.90;;;;;;4953939;28;88695;-32
2023/09/29 10:43:50;;;;;;;5.22;4.75;;;21.20;99.90;;;;;;4958578;28;90715;-33
2023/09/29 10:46:20;;;;;;;5.63;4.53;;;21.10;99.90;;;;;;4958561;28;90956;-33
2023/09/29 10:48:46;;;;;;;5.43;4.28;;;21.00;99.90;;;;;;4957690;28;88501;-32
2023/09/29 10:51:24;;;;;;;4.45;4.05;;;21.00;99.90;;;;;;4959290;28;89423;-33
2023/09/29 10:53:50;;;;;;;;;;;21.00;99.90;;;;;;4959680;28;89134;-32
2023/09/29 10:56:23;;;;;;;5.22;4.72;;;20.90;99.90;;;;;;4959484;28;89479;-34
2023/09/29 10:58:53;;;;;;;8.23;4.97;;;20.90;99.90;;;;;;4958649;28;88092;-31
2023/09/29 11:01:21;;;;;;;4.70;4.30;;;20.80;99.90;;;;;;4958545;28;90766;-32
2023/09/29 11:03:48;;;;;;;6.03;4.80;;;20.80;99.90;;;;;;4958118;28;89795;-33
2023/09/29 11:06:18;;;;;;;5.65;5.13;;;20.80;99.90;;;;;;4957691;28;89971;-35
2023/09/29 11:08:52;;;;;;;6.38;4.65;;;20.80;99.90;;;;;;4957502;28;89227;-34
2023/09/29 11:11:18;;;;;;;6.70;4.70;;;20.80;99.90;;;;;;4957949;28;90501;-32
2023/09/29 11:13:51;;;;;;;7.80;5.30;;;20.80;99.90;;;;;;4958180;28;89798;-37
2023/09/29 11:16:17;;;;;;;8.48;5.03;;;20.90;99.90;;;;;;4958629;28;89278;-30
2023/09/29 11:18:47;;;;;;;7.03;5.68;;;21.10;99.90;;;;;;4957130;28;87690;-37
2023/09/29 11:21:12;;;;;;;6.68;4.75;;;21.10;99.90;;;;;;4958032;28;90756;-33
2023/09/29 11:23:41;;;;;;;8.88;5.15;;;21.20;99.90;;;;;;4958096;28;90007;-32
2023/09/29 11:26:09;;;;;;;6.95;4.97;;;21.20;99.90;;;;;;4957149;28;89443;-37
2023/09/29 11:28:40;;;;;;;8.82;5.88;;;21.20;99.90;;;;;;4958099;28;88810;-33
2023/09/29 11:31:06;;;;;;;5.07;4.43;;;21.20;99.90;;;;;;4957696;28;89466;-32
2023/09/29 11:33:32;;;;;;;5.43;4.50;;;21.20;99.90;;;;;;4955799;28;91424;-33
2023/09/29 11:35:58;;;;;;;5.85;5.25;;;21.30;99.90;;;;;;4957646;28;90082;-34
2023/09/29 11:38:24;;;;;;;7.07;5.90;;;21.30;99.90;;;;;;4956910;28;89693;-34
2023/09/29 11:40:51;;;;;;;8.07;6.03;;;21.30;99.90;;;;;;4955878;28;89860;-32
2023/09/29 11:43:18;;;;;;;8.40;5.55;;;21.20;99.90;;;;;;4956886;28;90026;-35
2023/09/29 11:45:44;;;;;;;5.53;4.53;;;21.20;99.90;;;;;;4957703;28;88982;-34
2023/09/29 11:48:10;;;;;;;4.97;4.47;;;21.20;99.90;;;;;;4939341;28;90274;-32
2023/09/29 11:50:36;;;;;;;7.97;5.63;;;21.20;99.90;;;;;;4937743;28;90044;-34
2023/09/29 11:53:06;;;;;;;8.88;5.90;;;21.20;99.90;;;;;;4939453;28;91272;-34
2023/09/29 11:55:36;;;;;;;8.20;5.47;;;21.30;99.90;;;;;;4947736;28;89601;-35
2023/09/29 11:58:02;;;;;;;9.50;5.78;;;21.30;99.90;;;;;;4936975;28;88815;-32
2023/09/29 12:00:28;;;;;;;13.13;5.32;;;21.30;99.90;;;;;;4937681;28;89959;-34
2023/09/29 12:02:54;;;;;;;5.30;4.53;;;21.30;99.90;;;;;;4936317;28;89449;-36
2023/09/29 12:05:19;;;;;;;5.82;4.70;;;21.30;99.90;;;;;;4942434;28;88514;-33
2023/09/29 12:07:45;;;;;;;5.03;4.50;;;21.30;99.90;;;;;;4953863;28;89474;-34
2023/09/29 12:10:11;;;;;;;5.75;4.55;;;21.30;99.90;;;;;;4947435;28;90477;-33
2023/09/29 12:12:36;;;;;;;7.22;5.07;;;21.20;99.90;;;;;;4946204;28;89685;-34
2023/09/29 12:15:03;;;;;;;9.35;5.97;;;21.20;99.90;;;;;;4948130;28;89234;-33
2023/09/29 12:17:30;;;;;;;9.75;6.35;;;21.20;99.90;;;;;;4945330;28;88190;-38
2023/09/29 12:19:55;;;;;;;5.45;4.93;;;21.20;99.90;;;;;;4945301;28;90002;-31
2023/09/29 12:22:22;;;;;;;7.82;5.40;;;21.20;99.90;;;;;;4947433;28;90013;-34
2023/09/29 12:24:48;;;;;;;6.25;5.32;;;21.20;99.90;;;;;;4942215;28;91690;-34
2023/09/29 12:27:13;;;;;;;8.35;4.90;;;21.20;99.90;;;;;;4942947;28;90351;-31
2023/09/29 12:29:39;;;;;;;7.22;5.15;;;21.20;99.90;;;;;;4942690;28;90412;-33
2023/09/29 12:32:05;;;;;;;11.40;5.07;;;21.20;99.90;;;;;;4943346;28;90206;-36
2023/09/29 12:34:32;;;;;;;9.48;5.57;;;21.30;99.90;;;;;;4944169;28;89736;-35
2023/09/29 12:37:01;;;;;;;8.17;4.97;;;21.30;99.90;;;;;;4953545;28;89784;-32
2023/09/29 12:39:28;;;;;;;8.90;4.95;;;21.30;99.90;;;;;;4956181;28;90313;-36
2023/09/29 12:41:54;;;;;;;6.28;5.70;;;21.30;99.90;;;;;;4956195;28;89088;-31